AIH48W RPLC-RKSI
Flight info
| Callsign | AIH48W |
|---|---|
| Flight time | N/A |
| Altitude | 33000 |
| Route | RIANO5N RIANO TR25 CAB N884 ALBAX Y531 YURIX/N0499F350 Y27 RUSAR Y579 RUGMA/N0498F340 Z85 BILUM/N0494F350 DCT MELES/N0492F360 DCT OLMEN OLMEN2E |
| Aircraft | B744/H-SDE3FGHIM1M2RWXY/LB1 |
Departure
| Time | 2026-04-27 11:54 |
|---|---|
| Airport | Clark International Airport / Clark Air Base (RPLC) |
Arrival
| Time | N/A |
|---|---|
| Airport | Incheon International Airport (RKSI) |
| Time | Latitude | Longitude | Altitude | Speed | Heading |
|---|---|---|---|---|---|
| 2026-04-27 11:21 | 15.18057 | 120.54762 | 497 ft | 0 kts | 290° |
| 2026-04-27 11:40 | 15.18057 | 120.54761 | 497 ft | 0 kts | 291° |
| 2026-04-27 11:40 | 15.18057 | 120.54760 | 497 ft | 0 kts | 291° |
| 2026-04-27 11:40 | 15.18058 | 120.54760 | 497 ft | 0 kts | 291° |
| 2026-04-27 11:40 | 15.18058 | 120.54759 | 497 ft | 0 kts | 291° |
| 2026-04-27 11:41 | 15.18058 | 120.54758 | 497 ft | 0 kts | 291° |
| 2026-04-27 11:41 | 15.18059 | 120.54757 | 497 ft | 0 kts | 291° |
| 2026-04-27 11:42 | 15.18059 | 120.54756 | 497 ft | 0 kts | 291° |
| 2026-04-27 11:42 | 15.18069 | 120.54749 | 497 ft | 2 kts | 351° |
| 2026-04-27 11:42 | 15.18080 | 120.54759 | 497 ft | 2 kts | 70° |
| 2026-04-27 11:43 | 15.18090 | 120.54849 | 497 ft | 21 kts | 81° |
| 2026-04-27 11:43 | 15.18201 | 120.54928 | 497 ft | 21 kts | 18° |
| 2026-04-27 11:43 | 15.18348 | 120.54988 | 497 ft | 24 kts | 24° |
| 2026-04-27 11:43 | 15.18478 | 120.55043 | 497 ft | 19 kts | 39° |
| 2026-04-27 11:44 | 15.18474 | 120.55128 | 497 ft | 18 kts | 109° |
| 2026-04-27 11:44 | 15.18408 | 120.55290 | 497 ft | 31 kts | 113° |
| 2026-04-27 11:44 | 15.18328 | 120.55511 | 497 ft | 35 kts | 110° |
| 2026-04-27 11:44 | 15.18285 | 120.55673 | 497 ft | 17 kts | 59° |
| 2026-04-27 11:45 | 15.18424 | 120.55745 | 497 ft | 24 kts | 20° |
| 2026-04-27 11:45 | 15.18545 | 120.55791 | 497 ft | 29 kts | 20° |
| 2026-04-27 11:45 | 15.18770 | 120.55884 | 497 ft | 23 kts | 22° |
| 2026-04-27 11:45 | 15.18919 | 120.55937 | 497 ft | 22 kts | 24° |
| 2026-04-27 11:46 | 15.19045 | 120.55988 | 497 ft | 18 kts | 19° |
| 2026-04-27 11:46 | 15.19107 | 120.56039 | 497 ft | 11 kts | 90° |
| 2026-04-27 11:46 | 15.19112 | 120.56116 | 497 ft | 11 kts | 55° |
| 2026-04-27 11:46 | 15.19168 | 120.56162 | 497 ft | 10 kts | 28° |
| 2026-04-27 11:47 | 15.19231 | 120.56191 | 497 ft | 10 kts | 23° |
| 2026-04-27 11:47 | 15.19293 | 120.56217 | 497 ft | 9 kts | 22° |
| 2026-04-27 11:47 | 15.19352 | 120.56242 | 497 ft | 9 kts | 21° |
| 2026-04-27 11:47 | 15.19409 | 120.56264 | 497 ft | 9 kts | 21° |
| 2026-04-27 11:48 | 15.19464 | 120.56285 | 497 ft | 8 kts | 21° |
| 2026-04-27 11:48 | 15.19516 | 120.56306 | 497 ft | 8 kts | 21° |
| 2026-04-27 11:48 | 15.19566 | 120.56326 | 497 ft | 7 kts | 24° |
| 2026-04-27 11:48 | 15.19612 | 120.56347 | 497 ft | 7 kts | 24° |
| 2026-04-27 11:49 | 15.19657 | 120.56368 | 497 ft | 7 kts | 24° |
| 2026-04-27 11:49 | 15.19701 | 120.56384 | 497 ft | 7 kts | 18° |
| 2026-04-27 11:49 | 15.19745 | 120.56400 | 497 ft | 6 kts | 22° |
| 2026-04-27 11:49 | 15.19787 | 120.56418 | 497 ft | 6 kts | 21° |
| 2026-04-27 11:50 | 15.19827 | 120.56434 | 497 ft | 6 kts | 21° |
| 2026-04-27 11:50 | 15.19866 | 120.56450 | 497 ft | 6 kts | 21° |
| 2026-04-27 11:50 | 15.19904 | 120.56465 | 497 ft | 6 kts | 21° |
| 2026-04-27 11:50 | 15.19940 | 120.56479 | 497 ft | 5 kts | 21° |
| 2026-04-27 11:51 | 15.19975 | 120.56494 | 497 ft | 5 kts | 21° |
| 2026-04-27 11:51 | 15.20009 | 120.56507 | 497 ft | 5 kts | 21° |
| 2026-04-27 11:51 | 15.20074 | 120.56533 | 497 ft | 5 kts | 19° |
| 2026-04-27 11:52 | 15.20119 | 120.56559 | 497 ft | 12 kts | 45° |
| 2026-04-27 11:52 | 15.20141 | 120.56637 | 497 ft | 11 kts | 81° |
| 2026-04-27 11:52 | 15.20152 | 120.56709 | 497 ft | 16 kts | 81° |
| 2026-04-27 11:52 | 15.20139 | 120.56806 | 497 ft | 14 kts | 121° |
| 2026-04-27 11:53 | 15.20052 | 120.56822 | 497 ft | 12 kts | 200° |
| 2026-04-27 11:53 | 15.20044 | 120.56818 | 497 ft | 0 kts | 200° |
| 2026-04-27 11:53 | 15.20043 | 120.56818 | 497 ft | 0 kts | 200° |
| 2026-04-27 11:53 | 15.19964 | 120.56788 | 497 ft | 51 kts | 200° |
| 2026-04-27 11:54 | 15.19277 | 120.56518 | 498 ft | 157 kts | 201° |
| 2026-04-27 11:54 | 15.18027 | 120.56026 | 1096 ft | 196 kts | 201° |
| 2026-04-27 11:54 | 15.16739 | 120.55521 | 2517 ft | 198 kts | 201° |
| 2026-04-27 11:54 | 15.15418 | 120.54995 | 3661 ft | 211 kts | 201° |
| 2026-04-27 11:55 | 15.13981 | 120.54421 | 4409 ft | 232 kts | 201° |
| 2026-04-27 11:55 | 15.12366 | 120.53781 | 4850 ft | 266 kts | 200° |
| 2026-04-27 11:55 | 15.10455 | 120.53532 | 5482 ft | 288 kts | 176° |
| 2026-04-27 11:55 | 15.08584 | 120.54283 | 6878 ft | 281 kts | 150° |
| 2026-04-27 11:56 | 15.07213 | 120.55709 | 8002 ft | 294 kts | 127° |
| 2026-04-27 11:56 | 15.06370 | 120.57832 | 8496 ft | 326 kts | 102° |
| 2026-04-27 11:56 | 15.06328 | 120.60285 | 8903 ft | 356 kts | 83° |
| 2026-04-27 11:56 | 15.06844 | 120.62819 | 10088 ft | 358 kts | 77° |
| 2026-04-27 11:57 | 15.07343 | 120.65432 | 10870 ft | 383 kts | 81° |
| 2026-04-27 11:57 | 15.07835 | 120.68276 | 11221 ft | 417 kts | 73° |
| 2026-04-27 11:57 | 15.09081 | 120.71083 | 11590 ft | 447 kts | 57° |
| 2026-04-27 11:57 | 15.10948 | 120.73619 | 11942 ft | 445 kts | 46° |
| 2026-04-27 11:58 | 15.13170 | 120.75814 | 12286 ft | 442 kts | 36° |
| 2026-04-27 11:58 | 15.15848 | 120.77413 | 12642 ft | 439 kts | 21° |
| 2026-04-27 11:58 | 15.18719 | 120.78461 | 12999 ft | 437 kts | 14° |
| 2026-04-27 11:58 | 15.21647 | 120.79254 | 13349 ft | 436 kts | 9° |
| 2026-04-27 11:59 | 15.24681 | 120.79850 | 13707 ft | 437 kts | 7° |
| 2026-04-27 11:59 | 15.27676 | 120.80367 | 14057 ft | 438 kts | 7° |
| 2026-04-27 11:59 | 15.30691 | 120.80959 | 14403 ft | 442 kts | 11° |
| 2026-04-27 11:59 | 15.33541 | 120.82171 | 14749 ft | 449 kts | 27° |
| 2026-04-27 12:00 | 15.36004 | 120.84174 | 15108 ft | 456 kts | 41° |
| 2026-04-27 12:00 | 15.38160 | 120.86612 | 15460 ft | 461 kts | 48° |
| 2026-04-27 12:00 | 15.40073 | 120.89316 | 15814 ft | 465 kts | 54° |
| 2026-04-27 12:00 | 15.41753 | 120.92068 | 16154 ft | 468 kts | 57° |
| 2026-04-27 12:01 | 15.43556 | 120.95068 | 16521 ft | 471 kts | 56° |
| 2026-04-27 12:01 | 15.45321 | 120.97872 | 16866 ft | 473 kts | 55° |
| 2026-04-27 12:01 | 15.47284 | 121.00544 | 17194 ft | 474 kts | 44° |
| 2026-04-27 12:01 | 15.48542 | 121.01716 | 17387 ft | 473 kts | 37° |
| 2026-04-27 12:02 | 15.52885 | 121.04668 | 17958 ft | 472 kts | 27° |
| 2026-04-27 12:02 | 15.54061 | 121.05343 | 18101 ft | 472 kts | 26° |
| 2026-04-27 12:02 | 15.56342 | 121.06507 | 18365 ft | 473 kts | 23° |
| 2026-04-27 12:02 | 15.57536 | 121.07097 | 18508 ft | 474 kts | 22° |
| 2026-04-27 12:03 | 15.61090 | 121.08844 | 18924 ft | 477 kts | 22° |
| 2026-04-27 12:03 | 15.64160 | 121.10345 | 19284 ft | 479 kts | 22° |
| 2026-04-27 12:03 | 15.67194 | 121.11838 | 19637 ft | 481 kts | 22° |
| 2026-04-27 12:03 | 15.70269 | 121.13359 | 19993 ft | 484 kts | 22° |
| 2026-04-27 12:04 | 15.73297 | 121.14859 | 20342 ft | 486 kts | 22° |
| 2026-04-27 12:04 | 15.76357 | 121.16379 | 20693 ft | 488 kts | 23° |
| 2026-04-27 12:04 | 15.79520 | 121.17949 | 21055 ft | 491 kts | 22° |
| 2026-04-27 12:04 | 15.82615 | 121.19482 | 21406 ft | 493 kts | 23° |
| 2026-04-27 12:05 | 15.85704 | 121.21014 | 21755 ft | 496 kts | 23° |
| 2026-04-27 12:05 | 15.88884 | 121.22594 | 22113 ft | 498 kts | 23° |
| 2026-04-27 12:05 | 15.90660 | 121.23477 | 22312 ft | 500 kts | 23° |
| 2026-04-27 12:05 | 15.94774 | 121.25523 | 22771 ft | 503 kts | 23° |
| 2026-04-27 12:06 | 15.97940 | 121.27099 | 23123 ft | 505 kts | 23° |
| 2026-04-27 12:06 | 15.99414 | 121.27833 | 23286 ft | 506 kts | 23° |
| 2026-04-27 12:06 | 16.03924 | 121.30079 | 23782 ft | 510 kts | 23° |
| 2026-04-27 12:06 | 16.07036 | 121.31631 | 24123 ft | 512 kts | 23° |
| 2026-04-27 12:07 | 16.10316 | 121.33266 | 24480 ft | 515 kts | 23° |
| 2026-04-27 12:07 | 16.13559 | 121.34883 | 24832 ft | 516 kts | 23° |
| 2026-04-27 12:07 | 16.16839 | 121.36520 | 25187 ft | 516 kts | 23° |
| 2026-04-27 12:07 | 16.20118 | 121.38157 | 25543 ft | 515 kts | 23° |
| 2026-04-27 12:08 | 16.23536 | 121.39864 | 25915 ft | 514 kts | 23° |
| 2026-04-27 12:08 | 16.26780 | 121.41484 | 26267 ft | 513 kts | 23° |
| 2026-04-27 12:08 | 16.29993 | 121.43090 | 26617 ft | 512 kts | 23° |
| 2026-04-27 12:08 | 16.33294 | 121.44740 | 26978 ft | 512 kts | 23° |
| 2026-04-27 12:09 | 16.36498 | 121.46343 | 27328 ft | 511 kts | 23° |
| 2026-04-27 12:09 | 16.37532 | 121.46860 | 27442 ft | 511 kts | 23° |
| 2026-04-27 12:09 | 16.42852 | 121.49522 | 28025 ft | 509 kts | 23° |
| 2026-04-27 12:09 | 16.45007 | 121.50601 | 28261 ft | 509 kts | 23° |
| 2026-04-27 12:10 | 16.46754 | 121.51475 | 28453 ft | 508 kts | 23° |
| 2026-04-27 12:10 | 16.51377 | 121.53791 | 28962 ft | 507 kts | 23° |
| 2026-04-27 12:10 | 16.53466 | 121.54838 | 29193 ft | 507 kts | 23° |
| 2026-04-27 12:11 | 16.60621 | 121.58425 | 29983 ft | 505 kts | 23° |
| 2026-04-27 12:11 | 16.70035 | 121.63143 | 31027 ft | 503 kts | 23° |
| 2026-04-27 12:12 | 16.74410 | 121.65341 | 31514 ft | 502 kts | 23° |
| 2026-04-27 12:12 | 16.77565 | 121.66928 | 31865 ft | 501 kts | 23° |
| 2026-04-27 12:12 | 16.80703 | 121.68507 | 32215 ft | 501 kts | 23° |
| 2026-04-27 12:12 | 16.83839 | 121.70086 | 32566 ft | 500 kts | 23° |
| 2026-04-27 12:13 | 16.87006 | 121.71680 | 32910 ft | 499 kts | 23° |
| 2026-04-27 12:13 | 16.92256 | 121.74323 | 32998 ft | 499 kts | 23° |
| 2026-04-27 12:14 | 16.98406 | 121.77536 | 32997 ft | 499 kts | 24° |
| 2026-04-27 12:14 | 17.03189 | 121.80098 | 32997 ft | 499 kts | 24° |
| 2026-04-27 12:15 | 17.11505 | 121.84538 | 32996 ft | 499 kts | 24° |
| 2026-04-27 12:15 | 17.17688 | 121.87837 | 32997 ft | 499 kts | 24° |
| 2026-04-27 12:16 | 17.23867 | 121.91134 | 32997 ft | 499 kts | 24° |
| 2026-04-27 12:16 | 17.30101 | 121.94451 | 32997 ft | 499 kts | 24° |
| 2026-04-27 12:17 | 17.35275 | 121.97211 | 32997 ft | 499 kts | 24° |
| 2026-04-27 12:17 | 17.41982 | 122.00794 | 32997 ft | 499 kts | 24° |
| 2026-04-27 12:18 | 17.48291 | 122.04167 | 32997 ft | 499 kts | 24° |
| 2026-04-27 12:18 | 17.54476 | 122.07477 | 32997 ft | 499 kts | 24° |
| 2026-04-27 12:19 | 17.59782 | 122.10311 | 32997 ft | 499 kts | 24° |
| 2026-04-27 12:19 | 17.65957 | 122.13621 | 32997 ft | 499 kts | 24° |
| 2026-04-27 12:20 | 17.69023 | 122.15267 | 32997 ft | 499 kts | 24° |
| 2026-04-27 12:20 | 17.71444 | 122.16567 | 32997 ft | 499 kts | 24° |
| 2026-04-27 12:21 | 17.73887 | 122.17879 | 32997 ft | 499 kts | 24° |
| 2026-04-27 12:21 | 17.91114 | 122.27016 | 32997 ft | 499 kts | 24° |
| 2026-04-27 12:22 | 17.97376 | 122.30262 | 32997 ft | 499 kts | 24° |
| 2026-04-27 12:22 | 18.03672 | 122.33535 | 32997 ft | 499 kts | 24° |
| 2026-04-27 12:23 | 18.09937 | 122.36799 | 32997 ft | 499 kts | 24° |
| 2026-04-27 12:23 | 18.16197 | 122.40057 | 32997 ft | 499 kts | 24° |
| 2026-04-27 12:24 | 18.22425 | 122.43294 | 32997 ft | 499 kts | 24° |
| 2026-04-27 12:24 | 18.28640 | 122.46533 | 32997 ft | 499 kts | 24° |
| 2026-04-27 12:25 | 18.34858 | 122.49777 | 32997 ft | 499 kts | 24° |
| 2026-04-27 12:25 | 18.41125 | 122.53052 | 32997 ft | 499 kts | 24° |
| 2026-04-27 12:26 | 18.46439 | 122.55830 | 32997 ft | 499 kts | 24° |
| 2026-04-27 12:26 | 18.52798 | 122.59157 | 32998 ft | 514 kts | 24° |
| 2026-04-27 12:27 | 18.59304 | 122.62564 | 32997 ft | 530 kts | 24° |
| 2026-04-27 12:27 | 18.65958 | 122.66052 | 32997 ft | 538 kts | 24° |
| 2026-04-27 12:28 | 18.72765 | 122.69624 | 32997 ft | 538 kts | 24° |
| 2026-04-27 12:28 | 18.79456 | 122.73137 | 32997 ft | 538 kts | 24° |
| 2026-04-27 12:29 | 18.86162 | 122.76661 | 32997 ft | 538 kts | 24° |
| 2026-04-27 12:29 | 18.92867 | 122.80188 | 32997 ft | 538 kts | 24° |
| 2026-04-27 12:30 | 18.99645 | 122.83757 | 32997 ft | 538 kts | 24° |
| 2026-04-27 12:30 | 19.06347 | 122.87289 | 32997 ft | 538 kts | 24° |
| 2026-04-27 12:31 | 19.13047 | 122.90823 | 32997 ft | 538 kts | 24° |
| 2026-04-27 12:31 | 19.19778 | 122.94377 | 32997 ft | 538 kts | 24° |
| 2026-04-27 12:32 | 19.26650 | 122.98009 | 32997 ft | 538 kts | 24° |
| 2026-04-27 12:32 | 19.33447 | 123.01604 | 32997 ft | 538 kts | 24° |
| 2026-04-27 12:33 | 19.40138 | 123.05147 | 32997 ft | 538 kts | 24° |
| 2026-04-27 12:33 | 19.46829 | 123.08692 | 32997 ft | 538 kts | 24° |
| 2026-04-27 12:34 | 19.53616 | 123.12292 | 32997 ft | 538 kts | 24° |
| 2026-04-27 12:34 | 19.60386 | 123.15887 | 32997 ft | 538 kts | 24° |
| 2026-04-27 12:35 | 19.67071 | 123.19439 | 32997 ft | 538 kts | 24° |
| 2026-04-27 12:35 | 19.72723 | 123.22446 | 32997 ft | 538 kts | 24° |
| 2026-04-27 12:36 | 19.79412 | 123.26007 | 32997 ft | 538 kts | 24° |
| 2026-04-27 12:36 | 19.86278 | 123.29666 | 32997 ft | 538 kts | 24° |
| 2026-04-27 12:37 | 19.93020 | 123.33261 | 32997 ft | 538 kts | 24° |
| 2026-04-27 12:37 | 19.99710 | 123.36833 | 32997 ft | 538 kts | 24° |
| 2026-04-27 12:38 | 20.06390 | 123.40403 | 32997 ft | 538 kts | 24° |
| 2026-04-27 12:38 | 20.13166 | 123.44027 | 32997 ft | 538 kts | 24° |
| 2026-04-27 12:39 | 20.19901 | 123.47634 | 32997 ft | 538 kts | 24° |
| 2026-04-27 12:39 | 20.26575 | 123.51211 | 32997 ft | 538 kts | 24° |
| 2026-04-27 12:40 | 20.33310 | 123.54824 | 32997 ft | 538 kts | 24° |
| 2026-04-27 12:40 | 20.39983 | 123.58408 | 32997 ft | 538 kts | 24° |
| 2026-04-27 12:41 | 20.46668 | 123.62001 | 32997 ft | 538 kts | 24° |
| 2026-04-27 12:41 | 20.53484 | 123.65669 | 32997 ft | 538 kts | 24° |
| 2026-04-27 12:42 | 20.60160 | 123.69265 | 32997 ft | 538 kts | 24° |
| 2026-04-27 12:42 | 20.66842 | 123.72867 | 32997 ft | 538 kts | 24° |
| 2026-04-27 12:43 | 20.73563 | 123.76488 | 32997 ft | 538 kts | 24° |
| 2026-04-27 12:43 | 20.80417 | 123.80189 | 32997 ft | 538 kts | 24° |
| 2026-04-27 12:44 | 20.87093 | 123.83803 | 32997 ft | 538 kts | 24° |
| 2026-04-27 12:44 | 20.93761 | 123.87417 | 32997 ft | 538 kts | 24° |
| 2026-04-27 12:45 | 21.00437 | 123.91036 | 32997 ft | 538 kts | 24° |
| 2026-04-27 12:45 | 21.07116 | 123.94651 | 32997 ft | 538 kts | 24° |
| 2026-04-27 12:46 | 21.12711 | 123.97683 | 32997 ft | 538 kts | 24° |
| 2026-04-27 12:46 | 21.19386 | 124.01307 | 32997 ft | 538 kts | 24° |
| 2026-04-27 12:47 | 21.26060 | 124.04935 | 32997 ft | 538 kts | 24° |
| 2026-04-27 12:47 | 21.32914 | 124.08657 | 32997 ft | 538 kts | 24° |
| 2026-04-27 12:48 | 21.39634 | 124.12301 | 32997 ft | 538 kts | 24° |
| 2026-04-27 12:48 | 21.46300 | 124.15926 | 32997 ft | 538 kts | 24° |
| 2026-04-27 12:49 | 21.53073 | 124.19616 | 32997 ft | 538 kts | 24° |
| 2026-04-27 12:49 | 21.59877 | 124.23327 | 32997 ft | 538 kts | 24° |
| 2026-04-27 12:50 | 21.66577 | 124.26986 | 32997 ft | 538 kts | 24° |
| 2026-04-27 12:50 | 21.73250 | 124.30634 | 32997 ft | 538 kts | 24° |
| 2026-04-27 12:51 | 21.80102 | 124.34384 | 32997 ft | 538 kts | 24° |
| 2026-04-27 12:51 | 21.86768 | 124.38035 | 32997 ft | 538 kts | 24° |
| 2026-04-27 12:52 | 21.93444 | 124.41697 | 32997 ft | 538 kts | 24° |
| 2026-04-27 12:52 | 22.00106 | 124.45354 | 32997 ft | 538 kts | 25° |
| 2026-04-27 12:53 | 22.10144 | 124.50873 | 32997 ft | 538 kts | 25° |
| 2026-04-27 12:53 | 22.16731 | 124.54499 | 32997 ft | 538 kts | 25° |
| 2026-04-27 12:54 | 22.22828 | 124.57858 | 32997 ft | 538 kts | 25° |
| 2026-04-27 12:54 | 22.28073 | 124.60751 | 32997 ft | 538 kts | 25° |
| 2026-04-27 12:55 | 22.36189 | 124.65232 | 32997 ft | 538 kts | 25° |
| 2026-04-27 12:55 | 22.40420 | 124.67570 | 32997 ft | 538 kts | 25° |
| 2026-04-27 12:56 | 22.49772 | 124.72745 | 32997 ft | 538 kts | 25° |
| 2026-04-27 12:56 | 22.56423 | 124.76430 | 32997 ft | 538 kts | 25° |
| 2026-04-27 12:57 | 22.63091 | 124.80128 | 32997 ft | 538 kts | 25° |
| 2026-04-27 12:57 | 22.69708 | 124.83802 | 32997 ft | 538 kts | 25° |
| 2026-04-27 12:58 | 22.75341 | 124.86933 | 32997 ft | 538 kts | 25° |
| 2026-04-27 12:58 | 22.82122 | 124.90706 | 32997 ft | 538 kts | 25° |
| 2026-04-27 12:59 | 22.85047 | 124.92335 | 32997 ft | 538 kts | 25° |
| 2026-04-27 12:59 | 22.91823 | 124.96111 | 32997 ft | 538 kts | 25° |
| 2026-04-27 13:01 | 23.10295 | 125.06427 | 32997 ft | 538 kts | 25° |
| 2026-04-27 13:01 | 23.19859 | 125.11780 | 32997 ft | 538 kts | 25° |
| 2026-04-27 13:02 | 23.20386 | 125.12076 | 32997 ft | 538 kts | 25° |
| 2026-04-27 13:02 | 23.31615 | 125.18364 | 32997 ft | 538 kts | 25° |
| 2026-04-27 13:03 | 23.42012 | 125.24207 | 32997 ft | 538 kts | 25° |
| 2026-04-27 13:03 | 23.48577 | 125.27906 | 32997 ft | 538 kts | 25° |
| 2026-04-27 13:04 | 23.52651 | 125.30203 | 32997 ft | 538 kts | 25° |
| 2026-04-27 13:04 | 23.60123 | 125.34416 | 32997 ft | 539 kts | 25° |
| 2026-04-27 13:05 | 23.64655 | 125.36971 | 32997 ft | 538 kts | 25° |
| 2026-04-27 13:05 | 23.73942 | 125.42221 | 32997 ft | 539 kts | 25° |
| 2026-04-27 13:06 | 23.81923 | 125.46741 | 32997 ft | 539 kts | 25° |
| 2026-04-27 13:06 | 23.88574 | 125.50509 | 32997 ft | 538 kts | 25° |
| 2026-04-27 13:07 | 23.94167 | 125.53664 | 32997 ft | 539 kts | 25° |
| 2026-04-27 13:07 | 24.00815 | 125.57429 | 32997 ft | 539 kts | 25° |
| 2026-04-27 13:08 | 24.07266 | 125.61090 | 32997 ft | 539 kts | 25° |
| 2026-04-27 13:08 | 24.12378 | 125.63995 | 32997 ft | 539 kts | 25° |
| 2026-04-27 13:09 | 24.18785 | 125.67641 | 32997 ft | 539 kts | 25° |
| 2026-04-27 13:09 | 24.27909 | 125.72840 | 32997 ft | 539 kts | 25° |
| 2026-04-27 13:10 | 24.34347 | 125.76514 | 32997 ft | 539 kts | 25° |
| 2026-04-27 13:10 | 24.41193 | 125.80425 | 32997 ft | 539 kts | 25° |
| 2026-04-27 13:11 | 24.47850 | 125.84234 | 32997 ft | 539 kts | 25° |
| 2026-04-27 13:11 | 24.52178 | 125.86712 | 32997 ft | 539 kts | 25° |
| 2026-04-27 13:12 | 24.60599 | 125.91539 | 32997 ft | 539 kts | 25° |
| 2026-04-27 13:12 | 24.67942 | 125.95755 | 32997 ft | 539 kts | 25° |
| 2026-04-27 13:13 | 24.72561 | 125.98409 | 32997 ft | 539 kts | 25° |
| 2026-04-27 13:13 | 24.80465 | 126.02957 | 32997 ft | 539 kts | 25° |
| 2026-04-27 13:14 | 24.87119 | 126.06790 | 32997 ft | 539 kts | 25° |
| 2026-04-27 13:14 | 24.93757 | 126.10619 | 32997 ft | 539 kts | 25° |
| 2026-04-27 13:15 | 25.00406 | 126.14459 | 32997 ft | 539 kts | 25° |
| 2026-04-27 13:15 | 25.07031 | 126.18290 | 32997 ft | 539 kts | 25° |
| 2026-04-27 13:16 | 25.13423 | 126.21991 | 32997 ft | 539 kts | 25° |
| 2026-04-27 13:16 | 25.19136 | 126.25302 | 32997 ft | 539 kts | 25° |
| 2026-04-27 13:17 | 25.26205 | 126.29404 | 32997 ft | 539 kts | 25° |
| 2026-04-27 13:18 | 25.40472 | 126.37700 | 32997 ft | 539 kts | 25° |
| 2026-04-27 13:18 | 25.47141 | 126.41585 | 32997 ft | 539 kts | 25° |
| 2026-04-27 13:19 | 25.53769 | 126.45452 | 32997 ft | 539 kts | 25° |
| 2026-04-27 13:19 | 25.60291 | 126.49261 | 32997 ft | 539 kts | 25° |
| 2026-04-27 13:20 | 25.66928 | 126.53143 | 32997 ft | 539 kts | 25° |
| 2026-04-27 13:20 | 25.73549 | 126.57019 | 32997 ft | 539 kts | 25° |
| 2026-04-27 13:21 | 25.80194 | 126.60915 | 32997 ft | 539 kts | 25° |
| 2026-04-27 13:21 | 25.82378 | 126.62197 | 32997 ft | 539 kts | 25° |